createdAt,value
2023-10-11T00:02:06.920Z,3.38
2023-10-11T00:04:34.946Z,3.85
2023-10-11T00:07:02.950Z,4.60
2023-10-11T00:09:36.782Z,2.85
2023-10-11T00:12:05.538Z,3.90
2023-10-11T00:14:33.659Z,3.40
2023-10-11T00:17:05.370Z,3.42
2023-10-11T00:19:34.779Z,2.95
2023-10-11T00:22:07.025Z,3.63
2023-10-11T00:24:35.042Z,2.85
2023-10-11T00:27:03.854Z,3.20
2023-10-11T00:29:31.922Z,4.03
2023-10-11T00:32:00.010Z,3.42
2023-10-11T00:34:29.855Z,3.63
2023-10-11T00:36:59.121Z,3.05
2023-10-11T00:39:28.475Z,2.83
2023-10-11T00:41:57.378Z,3.83
2023-10-11T00:44:26.863Z,3.67
2023-10-11T00:47:01.061Z,2.92
2023-10-11T00:49:38.047Z,3.97
2023-10-11T00:52:07.881Z,2.97
2023-10-11T00:54:38.445Z,2.90
2023-10-11T00:57:07.485Z,2.92
2023-10-11T00:59:36.756Z,4.20
2023-10-11T01:02:06.373Z,3.10
2023-10-11T01:04:39.859Z,2.55
2023-10-11T01:07:09.337Z,3.15
2023-10-11T01:09:58.493Z,3.08
2023-10-11T01:12:26.514Z,3.13
2023-10-11T01:15:00.667Z,3.30
2023-10-11T01:17:32.698Z,3.15
2023-10-11T01:20:02.911Z,3.65
2023-10-11T01:22:32.180Z,3.13
2023-10-11T01:25:02.186Z,3.17
2023-10-11T01:27:32.197Z,3.50
2023-10-11T01:30:00.270Z,2.85
2023-10-11T01:32:28.397Z,3.33
2023-10-11T01:34:56.373Z,3.25
2023-10-11T01:37:24.412Z,3.33
2023-10-11T01:39:53.865Z,3.03
2023-10-11T01:42:21.841Z,3.20
2023-10-11T01:44:51.186Z,3.50
2023-10-11T01:47:20.518Z,3.50
2023-10-11T01:49:52.826Z,3.75
2023-10-11T01:52:20.905Z,3.42
2023-10-11T01:54:48.984Z,3.10
2023-10-11T01:57:18.395Z,2.97
2023-10-11T01:59:48.066Z,4.07
2023-10-11T02:02:16.682Z,3.58
2023-10-11T02:08:13.444Z,3.70
2023-10-11T02:10:41.363Z,4.00
2023-10-11T02:13:11.028Z,3.88
2023-10-11T02:15:41.350Z,4.05
2023-10-11T02:18:11.568Z,3.35
2023-10-11T02:20:45.453Z,3.13
2023-10-11T02:23:13.749Z,3.55
2023-10-11T02:28:15.181Z,3.70
2023-10-11T02:33:13.079Z,3.75
2023-10-11T02:35:54.220Z,3.05
2023-10-11T02:38:24.442Z,3.42
2023-10-11T02:40:58.579Z,3.38
2023-10-11T02:43:28.709Z,3.28
2023-10-11T02:46:16.536Z,3.25
2023-10-11T02:48:47.207Z,3.53
2023-10-11T02:51:17.825Z,3.20
2023-10-11T02:53:46.255Z,3.10
2023-10-11T02:56:16.349Z,3.78
2023-10-11T02:58:45.673Z,3.67
2023-10-11T03:01:21.260Z,3.77
2023-10-11T03:03:53.899Z,3.35
2023-10-11T03:06:25.770Z,3.95
2023-10-11T03:08:54.396Z,3.38
2023-10-11T03:14:13.566Z,4.10
2023-10-11T03:16:43.422Z,4.20
2023-10-11T03:19:12.253Z,4.18
2023-10-11T03:21:41.372Z,3.47
2023-10-11T03:24:12.724Z,3.22
2023-10-11T03:26:41.117Z,3.63
2023-10-11T03:29:19.633Z,3.60
2023-10-11T03:31:48.727Z,3.30
2023-10-11T03:34:18.616Z,4.28
2023-10-11T03:44:37.998Z,4.03
2023-10-11T03:47:10.057Z,3.53
2023-10-11T03:49:51.534Z,3.65
2023-10-11T03:52:23.421Z,3.67
2023-10-11T04:00:26.367Z,3.22
2023-10-11T04:02:58.160Z,4.60
2023-10-11T04:05:30.923Z,3.50
2023-10-11T04:08:00.742Z,6.38
2023-10-11T04:10:40.692Z,3.17
2023-10-11T04:13:10.814Z,3.38
2023-10-11T04:15:41.986Z,3.35
2023-10-11T04:18:21.933Z,4.10
2023-10-11T04:21:00.753Z,3.55
2023-10-11T04:23:29.202Z,4.53
2023-10-11T04:25:57.557Z,3.67
2023-10-11T04:28:25.462Z,3.83
2023-10-11T04:31:14.514Z,4.47
2023-10-11T04:33:46.760Z,4.28
2023-10-11T04:36:14.778Z,4.75
2023-10-11T04:38:48.908Z,3.40
2023-10-11T04:41:18.159Z,4.38
2023-10-11T04:46:28.407Z,3.65
2023-10-11T04:49:09.168Z,3.63
2023-10-11T04:51:41.085Z,3.67
2023-10-11T04:54:14.774Z,4.20
2023-10-11T04:56:54.832Z,4.05
2023-10-11T04:59:28.290Z,3.78
2023-10-11T05:02:03.631Z,4.28
2023-10-11T05:04:34.141Z,4.13
2023-10-11T05:07:09.258Z,4.03
2023-10-11T05:09:41.331Z,3.97
2023-10-11T05:12:11.704Z,3.70
2023-10-11T05:14:57.995Z,4.13
2023-10-11T05:17:40.143Z,4.30
2023-10-11T05:20:27.134Z,4.57
2023-10-11T05:23:05.938Z,3.95
2023-10-11T05:25:47.463Z,4.07
2023-10-11T05:28:27.815Z,3.80
2023-10-11T05:31:20.242Z,3.55
2023-10-11T05:34:30.535Z,4.63
2023-10-11T05:37:15.993Z,3.17
2023-10-11T05:40:01.169Z,4.68
2023-10-11T05:42:46.649Z,4.13
2023-10-11T05:45:32.721Z,4.50
2023-10-11T05:48:18.368Z,4.00
2023-10-11T05:50:56.509Z,4.10
2023-10-11T05:53:26.416Z,3.40
2023-10-11T05:55:55.074Z,4.18
2023-10-11T06:00:54.745Z,3.67
2023-10-11T06:03:29.957Z,3.92
2023-10-11T06:06:12.099Z,4.50
2023-10-11T06:08:40.893Z,6.75
2023-10-11T06:11:09.715Z,3.83
2023-10-11T06:13:38.143Z,4.50
2023-10-11T06:16:08.601Z,4.72
2023-10-11T06:18:59.304Z,4.40
2023-10-11T06:21:35.148Z,4.95
2023-10-11T06:24:05.474Z,4.22
2023-10-11T06:26:53.155Z,4.15
2023-10-11T06:29:24.319Z,4.03
2023-10-11T06:32:05.116Z,5.78
2023-10-11T06:34:37.521Z,4.25
2023-10-11T06:37:07.926Z,4.40
2023-10-11T06:40:01.473Z,3.78
2023-10-11T06:42:32.729Z,4.63
2023-10-11T06:45:02.809Z,3.28
2023-10-11T06:47:35.193Z,4.05
2023-10-11T06:50:11.709Z,4.50
2023-10-11T06:52:44.792Z,4.10
2023-10-11T06:55:18.369Z,4.88
2023-10-11T06:57:51.550Z,4.13
2023-10-11T07:00:25.613Z,4.03
2023-10-11T07:03:06.876Z,4.00
2023-10-11T07:08:07.686Z,4.35
2023-10-11T07:10:36.850Z,3.55
2023-10-11T07:13:09.006Z,4.40
2023-10-11T07:18:29.400Z,4.22
2023-10-11T07:21:07.004Z,3.60
2023-10-11T07:23:47.256Z,5.55
2023-10-11T07:26:25.057Z,3.10
2023-10-11T07:28:53.518Z,5.75
2023-10-11T07:31:49.978Z,4.05
2023-10-11T07:34:20.226Z,4.07
2023-10-11T07:36:50.011Z,4.60
2023-10-11T07:39:26.691Z,3.60
2023-10-11T07:42:02.155Z,4.63
2023-10-11T07:44:31.802Z,4.03
2023-10-11T07:47:00.066Z,4.20
2023-10-11T07:49:29.030Z,5.38
2023-10-11T07:51:59.885Z,4.05
2023-10-11T07:54:30.257Z,4.82
2023-10-11T07:56:59.990Z,4.03
2023-10-11T07:59:29.165Z,4.57
2023-10-11T08:01:58.487Z,4.20
2023-10-11T08:04:30.010Z,3.97
2023-10-11T08:07:01.832Z,4.00
2023-10-11T08:09:46.438Z,3.53
2023-10-11T08:12:16.044Z,3.42
2023-10-11T08:14:46.406Z,4.28
2023-10-11T08:17:17.607Z,4.53
2023-10-11T08:19:46.584Z,5.03
2023-10-11T08:22:15.751Z,4.07
2023-10-11T08:24:50.366Z,3.78
2023-10-11T08:27:29.202Z,3.58
2023-10-11T08:30:08.476Z,4.97
2023-10-11T08:32:39.285Z,5.10
2023-10-11T08:35:10.319Z,4.32
2023-10-11T08:37:39.045Z,4.95
2023-10-11T08:40:21.239Z,4.20
2023-10-11T08:43:08.415Z,3.53
2023-10-11T08:45:49.393Z,3.15
2023-10-11T08:48:18.883Z,4.63
2023-10-11T08:50:53.149Z,3.92
2023-10-11T08:53:22.751Z,4.18
2023-10-11T08:55:57.728Z,4.75
2023-10-11T08:58:29.053Z,5.10
2023-10-11T09:00:59.353Z,4.18
2023-10-11T09:03:30.562Z,4.32
2023-10-11T09:06:01.917Z,4.50
2023-10-11T09:08:34.155Z,4.78
2023-10-11T09:11:30.875Z,5.07
2023-10-11T09:14:12.395Z,3.92
2023-10-11T09:16:41.057Z,3.55
2023-10-11T09:19:11.208Z,4.53
2023-10-11T09:21:39.826Z,3.75
2023-10-11T09:24:25.590Z,3.95
2023-10-11T09:27:14.051Z,4.18
2023-10-11T09:29:43.436Z,5.47
2023-10-11T09:32:14.601Z,4.25
2023-10-11T09:34:43.662Z,5.28
2023-10-11T09:37:12.730Z,5.57
2023-10-11T09:39:40.705Z,4.90
2023-10-11T09:42:13.982Z,4.78
2023-10-11T09:44:45.254Z,5.20
2023-10-11T09:47:35.701Z,5.90
2023-10-11T09:50:04.209Z,5.85
2023-10-11T09:52:33.718Z,5.47
2023-10-11T09:55:32.562Z,5.07
2023-10-11T09:58:12.455Z,4.63
2023-10-11T10:00:45.661Z,4.18
2023-10-11T10:03:15.403Z,5.72
2023-10-11T10:06:09.380Z,5.13
2023-10-11T10:08:37.353Z,5.45
2023-10-11T10:11:05.310Z,4.20
2023-10-11T10:14:02.379Z,4.90
2023-10-11T10:17:11.943Z,4.82
2023-10-11T10:19:45.549Z,4.75
2023-10-11T10:22:33.803Z,5.72
2023-10-11T10:25:20.484Z,5.22
2023-10-11T10:27:53.832Z,5.13
2023-10-11T10:30:28.771Z,5.28
2023-10-11T10:33:22.759Z,5.38
2023-10-11T10:35:51.035Z,4.53
2023-10-11T10:38:24.030Z,4.07
2023-10-11T10:41:24.122Z,5.07
2023-10-11T10:44:17.561Z,4.85
2023-10-11T10:46:51.117Z,6.13
2023-10-11T10:49:20.184Z,6.45
2023-10-11T10:51:48.650Z,7.13
2023-10-11T10:54:22.752Z,4.53
2023-10-11T10:56:54.691Z,5.57
2023-10-11T10:59:23.656Z,4.97
2023-10-11T11:04:23.242Z,4.82
2023-10-11T11:06:53.816Z,5.13
2023-10-11T11:09:27.191Z,4.70
2023-10-11T11:11:59.634Z,6.35
2023-10-11T11:14:26.764Z,5.28
2023-10-11T11:17:00.417Z,5.72
2023-10-11T11:19:28.329Z,5.93
2023-10-11T11:22:12.466Z,5.88
2023-10-11T11:24:42.579Z,5.03
2023-10-11T11:27:19.767Z,4.90
2023-10-11T11:29:49.129Z,6.30
2023-10-11T11:32:18.828Z,7.03
2023-10-11T11:35:03.366Z,6.05
2023-10-11T11:37:32.065Z,6.40
2023-10-11T11:40:19.606Z,7.78
2023-10-11T11:42:48.704Z,6.00
2023-10-11T11:45:17.128Z,6.68
2023-10-11T11:50:42.403Z,6.30
2023-10-11T11:53:11.152Z,6.65
2023-10-11T11:55:40.901Z,6.40
2023-10-11T11:58:14.633Z,5.50
2023-10-11T12:00:46.759Z,5.40
2023-10-11T12:03:16.252Z,6.70
2023-10-11T12:05:43.699Z,6.63
2023-10-11T12:08:19.718Z,6.15
2023-10-11T12:10:48.926Z,5.95
2023-10-11T12:13:24.013Z,8.05
2023-10-11T12:15:55.973Z,7.03
2023-10-11T12:18:33.514Z,7.20
2023-10-11T12:21:03.453Z,7.30
2023-10-11T12:23:31.729Z,7.13
2023-10-11T12:26:05.377Z,7.68
2023-10-11T12:28:38.900Z,7.05
2023-10-11T12:31:07.001Z,6.20
2023-10-11T12:33:36.370Z,6.55
2023-10-11T12:36:07.509Z,6.60
2023-10-11T12:38:37.438Z,6.78
2023-10-11T12:41:06.204Z,7.60
2023-10-11T12:43:34.870Z,6.90
2023-10-11T12:46:22.303Z,6.32
2023-10-11T12:48:56.778Z,5.90
2023-10-11T12:51:25.687Z,5.95
2023-10-11T12:53:56.393Z,5.90
2023-10-11T12:56:26.155Z,5.85
2023-10-11T12:58:55.644Z,6.40
2023-10-11T13:01:39.396Z,6.47
2023-10-11T13:04:19.025Z,6.38
2023-10-11T13:06:51.599Z,6.88
2023-10-11T13:09:24.798Z,6.13
2023-10-11T13:11:57.611Z,6.45
2023-10-11T13:14:26.401Z,6.50
2023-10-11T13:16:55.400Z,6.07
2023-10-11T13:19:26.986Z,5.65
2023-10-11T13:21:56.933Z,4.97
2023-10-11T13:27:13.220Z,4.72
2023-10-11T13:29:41.292Z,4.55
2023-10-11T13:32:10.063Z,4.68
2023-10-11T13:34:43.783Z,4.50
2023-10-11T13:37:31.950Z,4.70
2023-10-11T13:42:38.556Z,4.45
2023-10-11T13:45:10.623Z,4.43
2023-10-11T13:47:39.921Z,4.20
2023-10-11T13:50:21.564Z,4.72
2023-10-11T13:52:52.670Z,4.60
2023-10-11T13:55:24.472Z,4.93
2023-10-11T13:57:56.318Z,4.30
2023-10-11T14:00:45.132Z,4.80
2023-10-11T14:03:42.454Z,4.60
2023-10-11T14:06:43.266Z,4.35
2023-10-11T14:09:28.774Z,4.72
2023-10-11T14:11:57.033Z,6.15
2023-10-11T14:14:25.817Z,5.53
2023-10-11T14:16:53.989Z,6.05
2023-10-11T14:19:40.860Z,3.97
2023-10-11T14:25:00.668Z,3.80
2023-10-11T14:27:30.921Z,4.47
2023-10-11T14:29:59.365Z,4.72
2023-10-11T14:34:55.233Z,4.53
2023-10-11T14:37:24.564Z,3.75
2023-10-11T14:39:52.850Z,4.53
2023-10-11T14:42:20.841Z,5.15
2023-10-11T14:44:48.953Z,4.25
2023-10-11T14:47:16.921Z,4.43
2023-10-11T14:50:05.317Z,6.10
2023-10-11T14:52:34.594Z,3.80
2023-10-11T14:55:02.856Z,4.55
2023-10-11T14:57:31.772Z,4.03
2023-10-11T14:59:59.856Z,3.72
2023-10-11T15:02:47.651Z,4.18
2023-10-11T15:05:17.270Z,3.50
2023-10-11T15:07:47.403Z,3.70
2023-10-11T15:10:16.511Z,4.47
2023-10-11T15:12:45.597Z,4.47
2023-10-11T15:15:16.778Z,5.35
2023-10-11T15:17:45.477Z,5.15
2023-10-11T15:20:14.543Z,5.00
2023-10-11T15:22:43.043Z,4.60
2023-10-11T15:28:19.514Z,4.65
2023-10-11T15:30:48.753Z,4.05
2023-10-11T15:33:19.252Z,3.67
2023-10-11T15:35:53.220Z,3.45
2023-10-11T15:38:21.521Z,5.05
2023-10-11T15:41:00.963Z,3.72
2023-10-11T15:43:29.704Z,3.67
2023-10-11T15:45:57.732Z,4.63
2023-10-11T15:48:25.917Z,4.68
2023-10-11T15:51:05.767Z,4.40
2023-10-11T15:53:37.162Z,3.70
2023-10-11T15:56:08.242Z,3.97
2023-10-11T15:58:38.427Z,4.95
2023-10-11T16:01:07.741Z,3.67
2023-10-11T16:03:40.885Z,4.25
2023-10-11T16:06:08.946Z,4.70
2023-10-11T16:08:37.401Z,3.40
2023-10-11T16:13:38.897Z,5.05
2023-10-11T16:16:07.852Z,3.90
2023-10-11T16:18:37.951Z,4.43
2023-10-11T16:21:06.139Z,3.08
2023-10-11T16:23:35.035Z,4.07
2023-10-11T16:26:03.820Z,3.00
2023-10-11T16:28:33.306Z,3.53
2023-10-11T16:31:01.786Z,3.40
2023-10-11T16:33:31.078Z,4.15
2023-10-11T16:36:00.518Z,3.78
2023-10-11T16:38:31.008Z,3.50
2023-10-11T16:40:58.982Z,5.25
2023-10-11T16:43:27.105Z,4.53
2023-10-11T16:45:59.037Z,2.90
2023-10-11T16:48:29.369Z,3.33
2023-10-11T16:50:59.341Z,3.58
2023-10-11T16:56:19.342Z,3.30
2023-10-11T16:59:06.637Z,3.85
2023-10-11T17:01:37.714Z,3.22
2023-10-11T17:04:08.897Z,2.90
2023-10-11T17:06:37.223Z,3.10
2023-10-11T17:09:07.611Z,3.05
2023-10-11T17:11:35.626Z,3.33
2023-10-11T17:14:03.598Z,3.30
2023-10-11T17:16:31.588Z,3.40
2023-10-11T17:19:00.956Z,3.55
2023-10-11T17:21:31.456Z,3.47
2023-10-11T17:23:59.774Z,2.78
2023-10-11T17:26:33.434Z,3.42
2023-10-11T17:29:01.946Z,3.72
2023-10-11T17:36:44.663Z,3.15
2023-10-11T17:39:15.007Z,3.70
2023-10-11T17:41:44.124Z,2.88
2023-10-11T17:44:13.292Z,2.88
2023-10-11T17:46:42.463Z,2.72
2023-10-11T17:49:10.830Z,3.20
2023-10-11T17:51:38.926Z,2.40
2023-10-11T17:54:08.512Z,3.20
2023-10-11T17:56:37.072Z,2.75
2023-10-11T17:59:05.187Z,3.03
2023-10-11T18:01:33.590Z,2.97
2023-10-11T18:06:34.408Z,2.75
2023-10-11T18:09:02.392Z,3.63
2023-10-11T18:11:32.828Z,2.35
2023-10-11T18:14:01.752Z,2.45
2023-10-11T18:16:30.797Z,2.90
2023-10-11T18:18:59.871Z,3.38
2023-10-11T18:21:27.897Z,3.13
2023-10-11T18:23:56.712Z,3.42
2023-10-11T18:26:24.812Z,2.55
2023-10-11T18:28:54.118Z,2.63
2023-10-11T18:31:25.396Z,3.80
2023-10-11T18:33:54.078Z,3.00
2023-10-11T18:36:22.609Z,3.28
2023-10-11T18:38:50.624Z,3.40
2023-10-11T18:41:18.530Z,2.97
2023-10-11T18:43:46.624Z,3.90
2023-10-11T18:46:16.045Z,3.00
2023-10-11T18:48:44.074Z,3.65
2023-10-11T18:51:17.059Z,3.55
2023-10-11T18:53:45.887Z,3.88
2023-10-11T18:58:42.742Z,3.20
2023-10-11T19:01:11.897Z,3.42
2023-10-11T19:03:41.330Z,3.60
2023-10-11T19:06:13.693Z,2.90
2023-10-11T19:08:41.877Z,3.25
2023-10-11T19:11:10.271Z,3.38
2023-10-11T19:13:39.408Z,2.50
2023-10-11T19:16:21.350Z,3.40
2023-10-11T19:18:53.476Z,2.95
2023-10-11T19:21:21.669Z,3.05
2023-10-11T19:23:49.788Z,2.78
2023-10-11T19:26:19.697Z,2.90
2023-10-11T19:28:47.970Z,3.42
2023-10-11T19:31:16.933Z,3.95
2023-10-11T19:33:45.107Z,4.07
2023-10-11T19:36:14.914Z,3.28
2023-10-11T19:38:42.915Z,2.97
2023-10-11T19:41:11.750Z,2.97
2023-10-11T19:43:39.911Z,2.95
2023-10-11T19:46:08.582Z,3.40
2023-10-11T19:48:37.303Z,3.03
2023-10-11T19:53:54.128Z,3.03
2023-10-11T19:56:25.905Z,3.55
2023-10-11T19:59:12.905Z,3.70
2023-10-11T20:01:42.930Z,3.83
2023-10-11T20:04:15.020Z,2.97
2023-10-11T20:06:44.233Z,3.45
2023-10-11T20:09:17.309Z,3.08
2023-10-11T20:11:45.368Z,3.60
2023-10-11T20:14:13.288Z,4.47
2023-10-11T20:16:41.707Z,3.03
2023-10-11T20:19:13.073Z,3.03
2023-10-11T20:21:41.749Z,3.55
2023-10-11T20:24:30.663Z,2.63
2023-10-11T20:26:58.649Z,3.10
2023-10-11T20:29:26.682Z,3.40
2023-10-11T20:31:54.700Z,3.45
2023-10-11T20:34:22.733Z,3.03
2023-10-11T20:36:50.889Z,2.78
2023-10-11T20:39:19.289Z,3.50
2023-10-11T20:41:50.714Z,3.53
2023-10-11T20:44:19.224Z,3.85
2023-10-11T20:46:47.311Z,3.20
2023-10-11T20:49:15.289Z,3.95
2023-10-11T20:51:43.497Z,3.08
2023-10-11T20:54:15.097Z,3.65
2023-10-11T20:56:46.984Z,3.38
2023-10-11T20:59:16.739Z,3.72
2023-10-11T21:01:46.241Z,2.78
2023-10-11T21:04:34.614Z,3.03
2023-10-11T21:07:03.618Z,3.35
2023-10-11T21:09:31.888Z,4.05
2023-10-11T21:11:59.986Z,3.65
2023-10-11T21:14:29.708Z,3.33
2023-10-11T21:16:57.745Z,3.53
2023-10-11T21:19:25.794Z,3.30
2023-10-11T21:22:13.309Z,2.85
2023-10-11T21:24:41.773Z,3.97
2023-10-11T21:29:39.048Z,2.92
2023-10-11T21:32:08.753Z,4.38
2023-10-11T21:34:36.904Z,2.97
2023-10-11T21:37:07.528Z,4.05
2023-10-11T21:39:35.555Z,3.28
2023-10-11T21:42:03.715Z,4.13
2023-10-11T21:44:31.930Z,3.28
2023-10-11T21:47:01.964Z,3.53
2023-10-11T21:49:29.849Z,2.60
2023-10-11T21:51:57.768Z,3.42
2023-10-11T21:54:27.950Z,3.63
2023-10-11T21:56:55.939Z,3.15
2023-10-11T21:59:24.432Z,3.70
2023-10-11T22:04:23.528Z,2.88
2023-10-11T22:06:51.617Z,2.58
2023-10-11T22:09:23.605Z,3.20
2023-10-11T22:11:53.277Z,3.22
2023-10-11T22:14:26.598Z,4.13
2023-10-11T22:16:55.433Z,3.65
2023-10-11T22:19:26.609Z,2.70
2023-10-11T22:21:54.670Z,4.18
2023-10-11T22:24:22.670Z,3.20
2023-10-11T22:26:50.997Z,3.10
2023-10-11T22:29:19.320Z,3.05
2023-10-11T22:31:47.638Z,3.50
2023-10-11T22:34:37.874Z,3.22
2023-10-11T22:37:14.156Z,2.95
2023-10-11T22:39:53.929Z,3.72
2023-10-11T22:42:21.970Z,3.20
2023-10-11T22:44:51.736Z,3.33
2023-10-11T22:47:20.548Z,2.95
2023-10-11T22:49:50.440Z,3.05
2023-10-11T22:52:20.038Z,2.70
2023-10-11T22:54:48.042Z,3.50
2023-10-11T22:57:56.351Z,3.80
2023-10-11T23:00:25.724Z,3.08
2023-10-11T23:02:55.338Z,5.57
2023-10-11T23:05:25.089Z,3.53
2023-10-11T23:07:53.024Z,3.55
2023-10-11T23:10:21.608Z,3.40
2023-10-11T23:12:51.508Z,3.03
2023-10-11T23:15:21.448Z,4.32
2023-10-11T23:17:51.708Z,3.33
2023-10-11T23:20:20.613Z,2.80
2023-10-11T23:23:13.831Z,3.75
2023-10-11T23:28:54.811Z,3.15
2023-10-11T23:31:42.650Z,3.35
2023-10-11T23:34:14.248Z,3.72
2023-10-11T23:36:43.998Z,3.05
2023-10-11T23:39:13.532Z,4.18
2023-10-11T23:41:46.846Z,3.10
2023-10-11T23:44:23.507Z,4.00
2023-10-11T23:46:59.567Z,3.60
2023-10-11T23:52:06.484Z,3.78
2023-10-11T23:54:39.684Z,4.20
2023-10-11T23:57:19.017Z,3.53
2023-10-11T23:59:47.383Z,3.63
